Terminal Aerodrome Forecast
Issued by NWS

Home | Current Version | Previous Version | Text Only | Print | Product List | Glossary On
Versions: 1 2 3 4 5 6 7 8 9 10 11 12 13 14 15 16 17 18 19 20 21 22 23 24 25 26 27 28 29 30 31 32 33 34
000
FTUS43 KPAH 070520
TAFOWB
TAF
KOWB 070520Z 0706/0806 19007KT P6SM SCT035 BKN150
     FM071200 20008KT P6SM SCT040 BKN100
      TEMPO 0714/0718 4SM -TSRA BR BKN030CB
     FM071900 22010KT P6SM SCT030 BKN050
     FM080000 21012KT P6SM VCTS SCT020CB BKN040
      TEMPO 0801/0805 3SM TSRA OVC020CB=

USA.gov is the U.S. government's official web portal to all federal, state and local government web resources and services.